createdAt,value
2018-02-09T00:00:54.773Z,101882.38
2018-02-09T00:03:21.441Z,101884.55
2018-02-09T00:05:47.611Z,101883.70
2018-02-09T00:08:14.050Z,101881.53
2018-02-09T00:10:40.352Z,101880.23
2018-02-09T00:13:06.507Z,101881.55
2018-02-09T00:15:32.723Z,101882.86
2018-02-09T00:17:58.900Z,101877.19
2018-02-09T00:20:25.064Z,101881.55
2018-02-09T00:22:51.618Z,101879.35
2018-02-09T00:25:17.840Z,101881.97
2018-02-09T00:27:44.042Z,101880.72
2018-02-09T00:30:10.309Z,101880.27
2018-02-09T00:32:36.483Z,101883.33
2018-02-09T00:35:02.663Z,101886.84
2018-02-09T00:37:28.893Z,101887.69
2018-02-09T00:39:55.059Z,101880.70
2018-02-09T00:42:21.231Z,101879.38
2018-02-09T00:44:47.819Z,101875.91
2018-02-09T00:47:13.973Z,101877.62
2018-02-09T00:49:40.135Z,101878.05
2018-02-09T00:52:06.379Z,101868.02
2018-02-09T00:54:32.899Z,101867.56
2018-02-09T00:56:59.330Z,101867.62
2018-02-09T00:59:25.912Z,101867.58
2018-02-09T01:01:52.072Z,101863.23
2018-02-09T01:04:18.214Z,101864.08
2018-02-09T01:06:45.375Z,101857.53
2018-02-09T01:09:11.561Z,101856.25
2018-02-09T01:11:37.745Z,101858.44
2018-02-09T01:14:04.365Z,101849.27
2018-02-09T01:16:30.512Z,101844.89
2018-02-09T01:18:56.686Z,101847.09
2018-02-09T01:21:22.897Z,101845.37
2018-02-09T01:23:49.088Z,101837.52
2018-02-09T01:26:15.320Z,101835.74
2018-02-09T01:28:41.485Z,101835.77
2018-02-09T01:31:07.662Z,101832.72
2018-02-09T01:33:34.366Z,101835.31
2018-02-09T01:36:00.547Z,101832.30
2018-02-09T01:38:26.790Z,101826.63
2018-02-09T01:40:53.046Z,101825.32
2018-02-09T01:43:19.210Z,101825.80
2018-02-09T01:45:45.376Z,101827.95
2018-02-09T01:48:11.622Z,101821.42
2018-02-09T01:50:37.813Z,101819.66
2018-02-09T01:53:04.013Z,101817.02
2018-02-09T01:55:30.548Z,101817.02
2018-02-09T01:57:56.723Z,101813.94
2018-02-09T02:00:23.371Z,101814.83
2018-02-09T02:02:49.535Z,101813.08
2018-02-09T02:05:15.721Z,101814.81
2018-02-09T02:07:42.195Z,101810.44
2018-02-09T02:10:08.378Z,101806.95
2018-02-09T02:12:34.573Z,101796.03
2018-02-09T02:15:00.805Z,101798.20
2018-02-09T02:17:26.994Z,101800.80
2018-02-09T02:19:53.144Z,101796.45
2018-02-09T02:22:19.382Z,101791.66
2018-02-09T02:24:45.561Z,101782.94
2018-02-09T02:27:11.725Z,101782.06
2018-02-09T02:29:37.918Z,101783.38
2018-02-09T02:32:04.409Z,101780.78
2018-02-09T02:34:30.607Z,101775.10
2018-02-09T02:36:56.916Z,101772.04
2018-02-09T02:39:23.127Z,101774.19
2018-02-09T02:41:49.602Z,101768.11
2018-02-09T02:44:15.836Z,101771.61
2018-02-09T02:46:42.371Z,101765.53
2018-02-09T02:49:08.587Z,101761.59
2018-02-09T02:51:34.974Z,101762.91
2018-02-09T02:54:01.136Z,101760.31
2018-02-09T02:56:27.312Z,101765.58
2018-02-09T02:58:53.525Z,101759.88
2018-02-09T03:01:19.933Z,101761.14
2018-02-09T03:03:46.086Z,101758.09
2018-02-09T03:06:12.655Z,101754.14
2018-02-09T03:08:38.847Z,101754.59
2018-02-09T03:11:04.997Z,101746.73
2018-02-09T03:13:31.209Z,101740.61
2018-02-09T03:15:57.446Z,101744.09
2018-02-09T03:18:23.610Z,101734.97
2018-02-09T03:20:49.845Z,101725.83
2018-02-09T03:23:16.300Z,101728.42
2018-02-09T03:25:42.477Z,101721.88
2018-02-09T03:28:08.690Z,101716.66
2018-02-09T03:30:34.842Z,101714.91
2018-02-09T03:33:00.989Z,101714.05
2018-02-09T03:35:27.210Z,101705.76
2018-02-09T03:37:53.417Z,101710.14
2018-02-09T03:40:19.680Z,101707.95
2018-02-09T03:42:45.906Z,101706.62
2018-02-09T03:45:12.089Z,101715.77
2018-02-09T03:47:38.283Z,101713.59
2018-02-09T03:50:04.858Z,101711.83
2018-02-09T03:52:31.009Z,101709.67
2018-02-09T03:54:57.157Z,101708.81
2018-02-09T03:57:23.740Z,101697.50
2018-02-09T03:59:49.968Z,101697.92
2018-02-09T04:02:16.460Z,101700.10
2018-02-09T04:04:42.717Z,101699.66
2018-02-09T04:07:08.908Z,101695.77
2018-02-09T04:09:35.082Z,101700.55
2018-02-09T04:12:01.650Z,101698.36
2018-02-09T04:14:28.110Z,101703.13
2018-02-09T04:16:54.284Z,101695.30
2018-02-09T04:19:20.772Z,101692.69
2018-02-09T04:21:46.985Z,101689.64
2018-02-09T04:24:13.143Z,101689.18
2018-02-09T04:26:39.385Z,101691.36
2018-02-09T04:29:05.890Z,101695.33
2018-02-09T04:31:32.324Z,101691.84
2018-02-09T04:33:58.857Z,101689.62
2018-02-09T04:36:25.038Z,101684.38
2018-02-09T04:38:51.257Z,101686.14
2018-02-09T04:41:17.439Z,101676.98
2018-02-09T04:43:43.596Z,101675.64
2018-02-09T04:46:09.822Z,101670.41
2018-02-09T04:48:35.983Z,101673.89
2018-02-09T04:51:02.169Z,101673.91
2018-02-09T04:53:28.389Z,101662.96
2018-02-09T04:55:54.574Z,101664.27
2018-02-09T04:58:20.748Z,101660.81
2018-02-09T05:00:46.932Z,101651.66
2018-02-09T05:03:13.104Z,101648.67
2018-02-09T05:05:39.341Z,101647.29
2018-02-09T05:08:05.520Z,101647.75
2018-02-09T05:10:31.668Z,101643.80
2018-02-09T05:12:57.921Z,101639.44
2018-02-09T05:15:24.110Z,101635.09
2018-02-09T05:17:50.634Z,101641.65
2018-02-09T05:20:16.813Z,101637.70
2018-02-09T05:22:42.988Z,101631.17
2018-02-09T05:25:09.450Z,101625.92
2018-02-09T05:27:35.612Z,101624.63
2018-02-09T05:30:01.854Z,101623.34
2018-02-09T05:32:28.025Z,101631.20
2018-02-09T05:34:54.222Z,101629.45
2018-02-09T05:37:20.702Z,101624.64
2018-02-09T05:39:46.876Z,101629.84
2018-02-09T05:42:13.075Z,101628.12
2018-02-09T05:44:39.283Z,101618.91
2018-02-09T05:47:05.822Z,101622.86
2018-02-09T05:49:32.423Z,101619.41
2018-02-09T05:51:59.012Z,101619.87
2018-02-09T05:54:26.326Z,101615.09
2018-02-09T05:56:52.930Z,101618.57
2018-02-09T05:59:19.470Z,101616.87
2018-02-09T06:01:46.248Z,101607.70
2018-02-09T06:04:12.830Z,101604.20
2018-02-09T06:06:39.336Z,101605.53
2018-02-09T06:09:05.916Z,101599.44
2018-02-09T06:11:32.561Z,101597.71
2018-02-09T06:13:58.745Z,101595.53
2018-02-09T06:16:24.960Z,101597.71
2018-02-09T06:18:51.484Z,101594.66
2018-02-09T06:21:17.946Z,101593.77
2018-02-09T06:23:44.398Z,101590.69
2018-02-09T06:26:10.773Z,101594.17
2018-02-09T06:28:37.016Z,101591.15
2018-02-09T06:31:03.204Z,101595.12
2018-02-09T06:33:29.458Z,101595.56
2018-02-09T06:35:55.675Z,101592.52
2018-02-09T06:38:21.848Z,101594.70
2018-02-09T06:40:48.360Z,101596.44
2018-02-09T06:43:14.577Z,101592.92
2018-02-09T06:45:40.767Z,101593.77
2018-02-09T06:48:06.998Z,101597.67
2018-02-09T06:50:33.212Z,101598.97
2018-02-09T06:52:59.446Z,101592.38
2018-02-09T06:55:25.627Z,101594.95
2018-02-09T06:57:51.816Z,101587.95
2018-02-09T07:00:18.027Z,101592.32
2018-02-09T07:02:44.617Z,101582.69
2018-02-09T07:05:11.147Z,101591.83
2018-02-09T07:07:37.337Z,101581.83
2018-02-09T07:10:03.562Z,101577.47
2018-02-09T07:12:30.147Z,101575.25
2018-02-09T07:14:56.334Z,101578.78
2018-02-09T07:17:22.587Z,101584.91
2018-02-09T07:19:48.762Z,101589.75
2018-02-09T07:22:14.938Z,101591.10
2018-02-09T07:24:41.149Z,101584.56
2018-02-09T07:27:07.388Z,101591.13
2018-02-09T07:29:33.544Z,101584.14
2018-02-09T07:31:59.788Z,101581.94
2018-02-09T07:34:25.962Z,101581.54
2018-02-09T07:36:52.425Z,101582.03
2018-02-09T07:39:19.020Z,101581.13
2018-02-09T07:41:45.461Z,101585.48
2018-02-09T07:44:12.028Z,101582.85
2018-02-09T07:46:38.281Z,101582.83
2018-02-09T07:49:04.792Z,101584.12
2018-02-09T07:51:30.969Z,101574.12
2018-02-09T07:53:57.230Z,101574.56
2018-02-09T07:58:55.084Z,101566.67
2018-02-09T08:01:21.246Z,101567.12
2018-02-09T08:03:47.493Z,101563.16
2018-02-09T08:06:13.667Z,101567.50
2018-02-09T08:08:39.845Z,101562.69
2018-02-09T08:11:06.276Z,101558.31
2018-02-09T08:13:32.443Z,101557.00
2018-02-09T08:15:58.938Z,101557.05
2018-02-09T08:18:25.188Z,101554.45
2018-02-09T08:20:51.383Z,101547.50
2018-02-09T08:23:17.541Z,101552.28
2018-02-09T08:25:44.046Z,101553.61
2018-02-09T08:28:10.211Z,101557.95
2018-02-09T08:30:36.380Z,101556.18
2018-02-09T08:33:02.606Z,101559.20
2018-02-09T08:35:28.783Z,101561.38
2018-02-09T08:37:54.953Z,101560.04
2018-02-09T08:40:21.160Z,101558.70
2018-02-09T08:42:47.341Z,101562.59
2018-02-09T08:45:13.877Z,101558.66
2018-02-09T08:47:40.411Z,101555.58
2018-02-09T08:50:06.949Z,101553.41
2018-02-09T08:52:33.480Z,101548.63
2018-02-09T08:54:59.649Z,101558.23
2018-02-09T08:57:25.826Z,101548.59
2018-02-09T08:59:52.415Z,101550.25
2018-02-09T09:02:18.911Z,101553.80
2018-02-09T09:04:45.340Z,101552.96
2018-02-09T09:07:13.221Z,101552.47
2018-02-09T09:09:39.740Z,101553.39
2018-02-09T09:12:05.942Z,101552.94
2018-02-09T09:14:32.811Z,101554.24
2018-02-09T09:16:58.981Z,101549.45
2018-02-09T09:19:25.149Z,101550.74
2018-02-09T09:21:51.398Z,101545.42
2018-02-09T09:24:17.586Z,101546.29
2018-02-09T09:26:43.758Z,101553.27
2018-02-09T09:29:10.031Z,101549.76
2018-02-09T09:31:36.236Z,101544.97
2018-02-09T09:34:02.412Z,101544.96
2018-02-09T09:36:28.657Z,101542.32
2018-02-09T09:38:54.853Z,101540.11
2018-02-09T09:41:21.047Z,101534.42
2018-02-09T09:43:47.297Z,101533.97
2018-02-09T09:46:13.496Z,101535.69
2018-02-09T09:48:40.003Z,101535.62
2018-02-09T09:51:06.241Z,101529.52
2018-02-09T09:53:32.437Z,101531.73
2018-02-09T09:55:58.639Z,101528.67
2018-02-09T09:58:25.269Z,101529.98
2018-02-09T10:00:51.471Z,101527.38
2018-02-09T10:03:17.669Z,101527.79
2018-02-09T10:05:43.863Z,101520.32
2018-02-09T10:08:10.029Z,101522.48
2018-02-09T10:10:36.258Z,101517.69
2018-02-09T10:13:02.436Z,101518.09
2018-02-09T10:15:28.639Z,101521.98
2018-02-09T10:17:54.880Z,101513.62
2018-02-09T10:20:21.078Z,101517.45
2018-02-09T10:22:47.508Z,101516.06
2018-02-09T10:25:13.824Z,101505.63
2018-02-09T10:27:40.041Z,101505.66
2018-02-09T10:30:06.288Z,101508.73
2018-02-09T10:32:32.466Z,101509.59
2018-02-09T10:34:58.664Z,101515.22
2018-02-09T10:37:24.897Z,101511.33
2018-02-09T10:39:51.412Z,101509.56
2018-02-09T10:44:53.740Z,101506.91
2018-02-09T10:47:20.181Z,101501.63
2018-02-09T10:49:46.343Z,101497.69
2018-02-09T10:52:12.565Z,101501.22
2018-02-09T10:54:38.751Z,101493.38
2018-02-09T10:57:05.152Z,101497.70
2018-02-09T10:59:31.685Z,101491.14
2018-02-09T11:01:57.867Z,101490.26
2018-02-09T11:04:24.031Z,101483.70
2018-02-09T11:06:50.264Z,101486.29
2018-02-09T11:09:22.498Z,101480.59
2018-02-09T11:11:49.071Z,101475.75
2018-02-09T11:14:15.602Z,101481.41
2018-02-09T11:16:41.820Z,101478.70
2018-02-09T11:19:08.259Z,101479.09
2018-02-09T11:21:34.691Z,101476.03
2018-02-09T11:24:00.859Z,101477.34
2018-02-09T11:26:27.357Z,101478.11
2018-02-09T11:28:53.552Z,101471.95
2018-02-09T11:31:19.732Z,101474.91
2018-02-09T11:33:53.034Z,101479.22
2018-02-09T11:36:19.201Z,101477.02
2018-02-09T11:38:45.357Z,101465.56
2018-02-09T11:41:11.996Z,101468.26
2018-02-09T11:43:38.181Z,101463.09
2018-02-09T11:46:04.761Z,101466.59
2018-02-09T11:48:31.040Z,101466.58
2018-02-09T11:50:57.313Z,101467.50
2018-02-09T11:53:23.488Z,101462.31
2018-02-09T11:55:50.042Z,101462.77
2018-02-09T11:58:16.237Z,101464.09
2018-02-09T12:00:42.432Z,101460.20
2018-02-09T12:03:09.013Z,101458.88
2018-02-09T12:05:35.198Z,101452.80
2018-02-09T12:08:01.373Z,101451.47
2018-02-09T12:10:27.597Z,101454.95
2018-02-09T12:12:53.790Z,101456.66
2018-02-09T12:15:20.316Z,101452.23
2018-02-09T12:17:46.527Z,101444.78
2018-02-09T12:20:12.737Z,101444.73
2018-02-09T12:22:38.930Z,101439.05
2018-02-09T12:25:05.485Z,101442.48
2018-02-09T12:27:31.968Z,101446.78
2018-02-09T12:29:58.156Z,101433.63
2018-02-09T12:32:24.809Z,101435.70
2018-02-09T12:34:51.265Z,101436.46
2018-02-09T12:37:17.440Z,101431.15
2018-02-09T12:39:43.639Z,101430.28
2018-02-09T12:42:10.199Z,101430.69
2018-02-09T12:44:36.374Z,101426.69
2018-02-09T12:47:02.596Z,101424.92
2018-02-09T12:49:28.845Z,101418.31
2018-02-09T12:51:55.019Z,101429.19
2018-02-09T12:54:21.499Z,101422.53
2018-02-09T12:56:47.794Z,101415.12
2018-02-09T12:59:13.978Z,101416.78
2018-02-09T13:01:40.208Z,101412.86
2018-02-09T13:04:06.440Z,101412.87
2018-02-09T13:06:32.893Z,101415.45
2018-02-09T13:08:59.058Z,101418.02
2018-02-09T13:11:25.313Z,101416.73
2018-02-09T13:13:51.570Z,101413.70
2018-02-09T13:16:17.741Z,101414.11
2018-02-09T13:18:49.199Z,101411.47
2018-02-09T13:21:15.749Z,101400.94
2018-02-09T13:23:54.218Z,101396.14
2018-02-09T13:26:20.386Z,101395.73
2018-02-09T13:28:57.872Z,101400.06
2018-02-09T13:31:24.061Z,101398.70
2018-02-09T13:33:50.302Z,101392.99
2018-02-09T13:36:22.468Z,101392.83
2018-02-09T13:38:48.659Z,101385.19
2018-02-09T13:41:14.863Z,101387.43
2018-02-09T13:43:41.123Z,101381.30
2018-02-09T13:46:07.359Z,101382.13
2018-02-09T13:48:33.578Z,101386.05
2018-02-09T13:51:00.079Z,101379.86
2018-02-09T13:53:26.248Z,101386.36
2018-02-09T13:55:52.422Z,101383.66
2018-02-09T13:58:18.641Z,101381.41
2018-02-09T14:00:45.196Z,101381.83
2018-02-09T14:03:11.731Z,101382.24
2018-02-09T14:05:37.963Z,101383.12
2018-02-09T14:08:04.193Z,101378.77
2018-02-09T14:10:30.809Z,101384.92
2018-02-09T14:12:56.997Z,101379.69
2018-02-09T14:15:23.184Z,101381.00
2018-02-09T14:17:49.411Z,101377.06
2018-02-09T14:20:15.590Z,101379.25
2018-02-09T14:22:42.217Z,101368.33
2018-02-09T14:25:08.410Z,101376.22
2018-02-09T14:27:34.646Z,101372.24
2018-02-09T14:30:01.104Z,101370.95
2018-02-09T14:32:27.306Z,101370.13
2018-02-09T14:34:53.477Z,101378.52
2018-02-09T14:37:19.714Z,101364.02
2018-02-09T14:39:46.161Z,101365.34
2018-02-09T14:42:12.343Z,101364.03
2018-02-09T14:44:38.561Z,101364.91
2018-02-09T14:47:04.753Z,101365.65
2018-02-09T14:49:31.187Z,101367.43
2018-02-09T14:51:57.464Z,101359.92
2018-02-09T14:54:23.950Z,101357.72
2018-02-09T14:56:50.116Z,101353.70
2018-02-09T14:59:16.317Z,101358.74
2018-02-09T15:01:42.532Z,101348.67
2018-02-09T15:04:08.703Z,101353.53
2018-02-09T15:06:35.202Z,101357.38
2018-02-09T15:09:01.674Z,101355.42
2018-02-09T15:11:27.850Z,101357.92
2018-02-09T15:13:54.064Z,101356.01
2018-02-09T15:16:20.310Z,101358.11
2018-02-09T15:18:46.517Z,101361.40
2018-02-09T15:21:12.709Z,101361.89
2018-02-09T15:23:38.916Z,101361.48
2018-02-09T15:26:05.199Z,101366.29
2018-02-09T15:28:31.664Z,101346.30
2018-02-09T15:30:58.197Z,101364.61
2018-02-09T15:33:24.402Z,101359.85
2018-02-09T15:35:50.692Z,101362.52
2018-02-09T15:38:16.940Z,101360.33
2018-02-09T15:40:43.137Z,101367.78
2018-02-09T15:43:09.384Z,101363.47
2018-02-09T15:45:35.634Z,101363.55
2018-02-09T15:48:02.102Z,101358.83
2018-02-09T15:50:28.637Z,101364.24
2018-02-09T15:52:54.870Z,101362.22
2018-02-09T15:55:21.395Z,101358.39
2018-02-09T15:57:47.937Z,101358.09
2018-02-09T16:00:14.200Z,101359.94
2018-02-09T16:02:40.698Z,101367.92
2018-02-09T16:05:06.934Z,101366.70
2018-02-09T16:07:33.462Z,101360.70
2018-02-09T16:09:59.637Z,101360.33
2018-02-09T16:12:25.797Z,101362.59
2018-02-09T16:14:52.421Z,101359.63
2018-02-09T16:17:18.583Z,101364.47
2018-02-09T16:19:45.120Z,101367.14
2018-02-09T16:22:11.340Z,101368.05
2018-02-09T16:24:37.512Z,101372.48
2018-02-09T16:27:03.700Z,101364.19
2018-02-09T16:29:30.282Z,101373.48
2018-02-09T16:31:56.448Z,101375.23
2018-02-09T16:34:22.639Z,101379.67
2018-02-09T16:36:48.885Z,101381.03
2018-02-09T16:39:15.071Z,101385.87
2018-02-09T16:41:41.241Z,101385.87
2018-02-09T16:44:07.490Z,101385.95
2018-02-09T16:46:33.673Z,101384.62
2018-02-09T16:49:00.157Z,101384.23
2018-02-09T16:51:26.674Z,101386.45
2018-02-09T16:53:52.859Z,101389.52
2018-02-09T16:56:19.464Z,101387.34
2018-02-09T16:58:45.684Z,101393.50
2018-02-09T17:01:11.836Z,101395.26
2018-02-09T17:03:38.346Z,101400.07
2018-02-09T17:06:04.553Z,101403.55
2018-02-09T17:08:30.700Z,101402.69
2018-02-09T17:10:56.920Z,101402.67
2018-02-09T17:13:23.080Z,101402.23
2018-02-09T17:15:49.265Z,101402.21
2018-02-09T17:18:15.901Z,101397.87
2018-02-09T17:20:42.059Z,101406.63
2018-02-09T17:23:08.256Z,101401.83
2018-02-09T17:25:34.472Z,101397.05
2018-02-09T17:28:00.629Z,101402.29
2018-02-09T17:30:26.809Z,101400.53
2018-02-09T17:32:53.048Z,101405.77
2018-02-09T17:35:19.300Z,101406.24
2018-02-09T17:37:45.475Z,101409.75
2018-02-09T17:40:11.717Z,101415.48
2018-02-09T17:42:37.880Z,101415.09
2018-02-09T17:45:04.069Z,101410.32
2018-02-09T17:47:30.969Z,101416.87
2018-02-09T17:49:57.155Z,101420.33
2018-02-09T17:52:23.436Z,101415.52
2018-02-09T17:54:49.688Z,101412.50
2018-02-09T17:57:15.881Z,101421.25
2018-02-09T17:59:42.058Z,101426.05
2018-02-09T18:02:08.295Z,101421.25
2018-02-09T18:04:34.772Z,101421.28
2018-02-09T18:07:00.963Z,101420.83
2018-02-09T18:09:27.184Z,101419.95
2018-02-09T18:11:53.369Z,101425.60
2018-02-09T18:14:19.603Z,101427.35
2018-02-09T18:16:45.885Z,101423.87
2018-02-09T18:19:12.045Z,101424.30
2018-02-09T18:21:38.221Z,101429.55
2018-02-09T18:24:04.400Z,101429.56
2018-02-09T18:26:30.548Z,101426.94
2018-02-09T18:28:56.767Z,101433.48
2018-02-09T18:31:23.284Z,101432.64
2018-02-09T18:33:49.490Z,101436.14
2018-02-09T18:36:16.039Z,101437.44
2018-02-09T18:38:42.207Z,101434.81
2018-02-09T18:41:08.384Z,101431.35
2018-02-09T18:43:34.592Z,101432.66
2018-02-09T18:46:00.752Z,101440.55
2018-02-09T18:48:26.968Z,101440.59
2018-02-09T18:50:53.160Z,101440.59
2018-02-09T18:53:19.354Z,101439.27
2018-02-09T18:55:45.525Z,101441.93
2018-02-09T18:58:11.993Z,101440.16
2018-02-09T19:00:38.188Z,101442.79
2018-02-09T19:03:04.345Z,101436.23
2018-02-09T19:05:30.561Z,101441.52
2018-02-09T19:07:56.808Z,101444.11
2018-02-09T19:10:22.978Z,101441.91
2018-02-09T19:12:49.172Z,101444.12
2018-02-09T19:15:15.694Z,101442.78
2018-02-09T19:17:41.878Z,101444.95
2018-02-09T19:20:08.044Z,101443.20
2018-02-09T19:22:41.377Z,101444.52
2018-02-09T19:25:07.891Z,101452.36
2018-02-09T19:27:34.140Z,101454.55
2018-02-09T19:30:00.304Z,101454.99
2018-02-09T19:32:26.546Z,101458.02
2018-02-09T19:34:53.168Z,101456.73
2018-02-09T19:37:19.321Z,101449.34
2018-02-09T19:39:45.514Z,101450.19
2018-02-09T19:42:11.729Z,101455.45
2018-02-09T19:44:37.942Z,101456.77
2018-02-09T19:47:04.177Z,101455.02
2018-02-09T19:49:30.387Z,101459.83
2018-02-09T19:51:56.582Z,101460.27
2018-02-09T19:54:22.826Z,101464.65
2018-02-09T19:56:48.987Z,101463.38
2018-02-09T19:59:15.477Z,101465.97
2018-02-09T20:01:41.718Z,101468.58
2018-02-09T20:04:07.900Z,101470.38
2018-02-09T20:06:34.093Z,101465.58
2018-02-09T20:09:00.591Z,101473.00
2018-02-09T20:11:26.757Z,101466.88
2018-02-09T20:13:52.945Z,101472.99
2018-02-09T20:16:19.483Z,101472.10
2018-02-09T20:18:45.650Z,101478.22
2018-02-09T20:21:11.805Z,101477.34
2018-02-09T20:23:38.378Z,101482.61
2018-02-09T20:26:04.935Z,101487.00
2018-02-09T20:28:31.116Z,101479.11
2018-02-09T20:30:57.273Z,101479.09
2018-02-09T20:33:23.495Z,101484.33
2018-02-09T20:35:49.675Z,101476.07
2018-02-09T20:38:16.155Z,101482.61
2018-02-09T20:40:42.995Z,101479.12
2018-02-09T20:43:09.148Z,101483.05
2018-02-09T20:45:35.336Z,101480.86
2018-02-09T20:48:01.959Z,101485.66
2018-02-09T20:50:28.421Z,101484.79
2018-02-09T20:52:54.614Z,101490.05
2018-02-09T20:55:20.863Z,101493.59
2018-02-09T20:57:47.101Z,101492.27
2018-02-09T21:00:13.331Z,101490.93
2018-02-09T21:02:39.868Z,101484.36
2018-02-09T21:05:06.403Z,101488.31
2018-02-09T21:07:32.605Z,101490.94
2018-02-09T21:09:58.789Z,101487.89
2018-02-09T21:12:25.020Z,101486.19
2018-02-09T21:14:51.194Z,101485.72
2018-02-09T21:17:17.406Z,101490.08
2018-02-09T21:19:43.650Z,101484.81
2018-02-09T21:22:09.850Z,101487.47
2018-02-09T21:24:36.333Z,101486.14
2018-02-09T21:27:02.545Z,101485.29
2018-02-09T21:29:28.759Z,101487.05
2018-02-09T21:31:55.219Z,101483.56
2018-02-09T21:34:21.754Z,101490.11
2018-02-09T21:36:47.899Z,101491.88
2018-02-09T21:39:14.058Z,101487.95
2018-02-09T21:41:40.292Z,101495.81
2018-02-09T21:44:06.503Z,101497.97
2018-02-09T21:46:32.674Z,101499.28
2018-02-09T21:48:58.918Z,101502.35
2018-02-09T21:51:25.095Z,101498.85
2018-02-09T21:53:51.277Z,101498.47
2018-02-09T21:56:17.872Z,101501.06
2018-02-09T21:58:44.348Z,101503.23
2018-02-09T22:01:10.528Z,101495.80
2018-02-09T22:03:36.744Z,101504.95
2018-02-09T22:06:03.240Z,101503.23
2018-02-09T22:08:29.433Z,101505.42
2018-02-09T22:10:55.644Z,101499.69
2018-02-09T22:13:21.831Z,101496.66
2018-02-09T22:15:48.417Z,101501.02
2018-02-09T22:18:14.610Z,101506.25
2018-02-09T22:20:41.119Z,101503.64
2018-02-09T22:23:08.060Z,101500.56
2018-02-09T22:25:34.223Z,101504.49
2018-02-09T22:28:00.724Z,101504.05
2018-02-09T22:30:26.964Z,101499.27
2018-02-09T22:32:53.144Z,101508.48
2018-02-09T22:35:19.343Z,101509.75
2018-02-09T22:37:45.581Z,101508.44
2018-02-09T22:40:12.070Z,101501.91
2018-02-09T22:45:10.081Z,101506.27
2018-02-09T22:47:36.303Z,101507.61
2018-02-09T22:50:02.454Z,101509.34
2018-02-09T22:52:28.676Z,101511.56
2018-02-09T22:54:55.173Z,101499.83
2018-02-09T22:57:21.567Z,101502.87
2018-02-09T22:59:47.798Z,101505.49
2018-02-09T23:02:14.008Z,101505.06
2018-02-09T23:04:40.199Z,101509.41
2018-02-09T23:07:06.415Z,101504.16
2018-02-09T23:09:32.955Z,101507.23
2018-02-09T23:11:59.125Z,101507.67
2018-02-09T23:14:25.360Z,101506.81
2018-02-09T23:16:51.843Z,101500.70
2018-02-09T23:19:18.051Z,101501.14
2018-02-09T23:21:44.313Z,101502.02
2018-02-09T23:24:10.473Z,101502.02
2018-02-09T23:26:36.957Z,101505.94
2018-02-09T23:29:03.457Z,101496.38
2018-02-09T23:31:29.622Z,101497.64
2018-02-09T23:33:55.803Z,101501.59
2018-02-09T23:36:22.365Z,101502.89
2018-02-09T23:38:48.524Z,101502.45
2018-02-09T23:41:15.042Z,101506.77
2018-02-09T23:43:41.274Z,101509.41
2018-02-09T23:46:07.476Z,101511.16
2018-02-09T23:48:34.337Z,101507.67
2018-02-09T23:51:00.495Z,101517.27
2018-02-09T23:53:26.730Z,101508.11
2018-02-09T23:55:52.915Z,101511.19
2018-02-09T23:58:19.215Z,101511.16
